createdAt,value
2023-10-06T00:00:01.682Z,59.29
2023-10-06T00:02:01.713Z,59.05
2023-10-06T00:04:01.717Z,58.56
2023-10-06T00:06:01.742Z,58.55
2023-10-06T00:08:01.741Z,58.64
2023-10-06T00:10:01.714Z,58.62
2023-10-06T00:12:01.738Z,58.76
2023-10-06T00:14:01.884Z,58.75
2023-10-06T00:16:01.786Z,58.96
2023-10-06T00:18:01.816Z,59.03
2023-10-06T00:20:01.768Z,59.63
2023-10-06T00:22:01.791Z,60.00
2023-10-06T00:24:01.780Z,60.45
2023-10-06T00:26:01.772Z,60.55
2023-10-06T00:28:01.752Z,60.30
2023-10-06T00:30:01.787Z,60.43
2023-10-06T00:32:01.839Z,60.38
2023-10-06T00:34:01.774Z,60.35
2023-10-06T00:36:01.772Z,60.03
2023-10-06T00:38:01.873Z,59.71
2023-10-06T00:40:01.772Z,59.79
2023-10-06T00:42:01.775Z,59.50
2023-10-06T00:44:01.821Z,59.35
2023-10-06T00:47:01.889Z,59.19
2023-10-06T00:49:01.820Z,59.37
2023-10-06T00:52:01.802Z,59.65
2023-10-06T00:54:01.810Z,59.90
2023-10-06T00:56:02.022Z,60.31
2023-10-06T00:58:01.853Z,60.39
2023-10-06T01:00:01.794Z,60.57
2023-10-06T01:03:01.951Z,61.06
2023-10-06T01:05:01.903Z,61.02
2023-10-06T01:07:01.886Z,61.22
2023-10-06T01:11:01.942Z,61.46
2023-10-06T01:13:01.864Z,61.45
2023-10-06T01:15:01.885Z,61.55
2023-10-06T01:17:02.000Z,61.32
2023-10-06T01:19:01.925Z,61.15
2023-10-06T01:21:01.873Z,61.23
2023-10-06T01:23:01.954Z,61.20
2023-10-06T01:27:01.944Z,61.70
2023-10-06T01:29:02.043Z,61.59
2023-10-06T01:31:01.914Z,61.69
2023-10-06T01:33:01.963Z,61.68
2023-10-06T01:35:02.050Z,61.68
2023-10-06T01:37:01.961Z,61.99
2023-10-06T01:39:01.919Z,62.29
2023-10-06T01:41:01.952Z,62.13
2023-10-06T01:43:01.961Z,62.54
2023-10-06T01:45:01.972Z,62.41
2023-10-06T01:47:01.999Z,62.50
2023-10-06T01:49:01.946Z,62.53
2023-10-06T01:51:01.994Z,62.38
2023-10-06T01:53:02.015Z,62.28
2023-10-06T01:55:01.953Z,62.40
2023-10-06T01:57:01.970Z,62.23
2023-10-06T01:59:02.015Z,62.19
2023-10-06T02:01:02.046Z,62.04
2023-10-06T02:03:02.127Z,62.03
2023-10-06T02:05:02.052Z,62.02
2023-10-06T02:08:02.096Z,61.93
2023-10-06T02:12:02.040Z,61.80
2023-10-06T02:15:02.005Z,61.61
2023-10-06T02:18:02.206Z,61.73
2023-10-06T02:20:02.086Z,62.13
2023-10-06T02:22:02.082Z,62.48
2023-10-06T02:24:02.072Z,62.69
2023-10-06T02:26:02.061Z,62.75
2023-10-06T02:28:02.028Z,62.90
2023-10-06T02:30:02.093Z,63.63
2023-10-06T02:32:02.242Z,64.08
2023-10-06T02:35:02.187Z,64.37
2023-10-06T02:38:02.118Z,64.38
2023-10-06T02:40:02.139Z,64.15
2023-10-06T02:42:02.070Z,64.00
2023-10-06T02:44:02.103Z,63.63
2023-10-06T02:46:02.123Z,63.55
2023-10-06T02:48:02.136Z,63.35
2023-10-06T02:50:02.140Z,63.24
2023-10-06T02:54:02.146Z,63.07
2023-10-06T02:56:02.198Z,63.03
2023-10-06T02:59:02.153Z,62.90
2023-10-06T03:02:02.342Z,62.96
2023-10-06T03:04:02.170Z,63.05
2023-10-06T03:07:02.168Z,63.04
2023-10-06T03:09:02.194Z,62.92
2023-10-06T03:11:02.190Z,63.14
2023-10-06T03:14:02.230Z,63.18
2023-10-06T03:16:02.143Z,63.23
2023-10-06T03:18:02.190Z,63.15
2023-10-06T03:20:02.246Z,63.05
2023-10-06T03:22:02.196Z,63.04
2023-10-06T03:24:02.221Z,63.00
2023-10-06T03:26:02.218Z,62.95
2023-10-06T03:28:02.187Z,62.71
2023-10-06T03:30:02.245Z,62.64
2023-10-06T03:32:02.280Z,62.41
2023-10-06T03:34:02.189Z,62.36
2023-10-06T03:36:02.230Z,62.36
2023-10-06T03:38:02.295Z,62.39
2023-10-06T03:40:02.239Z,62.60
2023-10-06T03:42:02.261Z,62.54
2023-10-06T03:44:02.294Z,62.53
2023-10-06T03:46:02.325Z,62.09
2023-10-06T03:48:02.330Z,62.02
2023-10-06T03:50:02.264Z,61.99
2023-10-06T03:54:02.295Z,61.96
2023-10-06T03:56:02.345Z,61.94
2023-10-06T03:58:02.289Z,62.11
2023-10-06T04:00:02.282Z,62.26
2023-10-06T04:02:02.410Z,62.66
2023-10-06T04:05:02.318Z,62.69
2023-10-06T04:08:02.350Z,62.67
2023-10-06T04:11:02.309Z,62.84
2023-10-06T04:13:02.320Z,63.12
2023-10-06T04:15:02.372Z,63.33
2023-10-06T04:17:02.421Z,63.38
2023-10-06T04:19:02.349Z,63.36
2023-10-06T04:22:02.377Z,63.40
2023-10-06T04:25:02.388Z,63.24
2023-10-06T04:27:02.387Z,63.22
2023-10-06T04:30:02.373Z,63.53
2023-10-06T04:32:02.430Z,63.39
2023-10-06T04:34:02.388Z,63.39
2023-10-06T04:37:02.400Z,63.38
2023-10-06T04:39:02.360Z,63.17
2023-10-06T04:41:02.445Z,63.21
2023-10-06T04:43:02.412Z,63.12
2023-10-06T04:45:02.428Z,63.04
2023-10-06T04:47:02.396Z,63.17
2023-10-06T04:49:02.435Z,63.22
2023-10-06T04:51:02.420Z,63.29
2023-10-06T04:53:02.461Z,63.27
2023-10-06T04:55:02.417Z,63.21
2023-10-06T04:58:02.434Z,63.39
2023-10-06T05:01:02.452Z,63.31
2023-10-06T05:03:02.532Z,63.56
2023-10-06T05:05:02.483Z,63.66
2023-10-06T05:07:02.441Z,63.43
2023-10-06T05:12:02.479Z,63.35
2023-10-06T05:14:02.557Z,63.29
2023-10-06T05:16:02.637Z,63.79
2023-10-06T05:19:02.485Z,63.93
2023-10-06T05:21:02.500Z,64.00
2023-10-06T05:23:02.532Z,64.05
2023-10-06T05:25:02.500Z,63.94
2023-10-06T05:27:02.676Z,64.11
2023-10-06T05:29:02.555Z,64.11
2023-10-06T05:31:02.472Z,63.89
2023-10-06T05:33:02.586Z,63.79
2023-10-06T05:37:02.538Z,63.69
2023-10-06T05:40:02.550Z,63.60
2023-10-06T05:43:02.553Z,63.26
2023-10-06T05:45:02.660Z,63.25
2023-10-06T05:47:02.552Z,63.30
2023-10-06T05:49:02.540Z,63.24
2023-10-06T05:51:02.684Z,63.39
2023-10-06T05:53:02.601Z,63.42
2023-10-06T05:55:02.551Z,63.32
2023-10-06T05:57:02.549Z,62.98
2023-10-06T05:59:02.575Z,62.67
2023-10-06T06:01:02.672Z,62.22
2023-10-06T06:03:02.626Z,62.02
2023-10-06T06:05:02.613Z,61.87
2023-10-06T06:07:02.584Z,61.55
2023-10-06T06:09:02.616Z,61.46
2023-10-06T06:11:02.656Z,61.20
2023-10-06T06:13:02.590Z,61.34
2023-10-06T06:15:02.639Z,61.03
2023-10-06T06:17:02.695Z,60.80
2023-10-06T06:19:02.700Z,60.81
2023-10-06T06:21:02.650Z,60.67
2023-10-06T06:23:02.657Z,60.52
2023-10-06T06:25:02.635Z,59.61
2023-10-06T06:27:02.726Z,56.19
2023-10-06T06:29:02.701Z,53.21
2023-10-06T06:31:02.640Z,51.69
2023-10-06T06:33:02.734Z,49.84
2023-10-06T06:35:02.715Z,48.84
2023-10-06T06:37:02.687Z,47.02
2023-10-06T06:39:02.670Z,46.39
2023-10-06T06:41:02.673Z,45.03
2023-10-06T06:43:02.750Z,42.94
2023-10-06T06:45:03.079Z,41.58
2023-10-06T06:47:02.743Z,41.15
2023-10-06T06:49:02.713Z,40.92
2023-10-06T06:51:02.704Z,40.88
2023-10-06T06:53:02.773Z,39.95
2023-10-06T06:55:02.745Z,38.81
2023-10-06T06:57:02.715Z,38.67
2023-10-06T06:59:02.869Z,37.96
2023-10-06T07:01:02.764Z,36.80
2023-10-06T07:03:02.839Z,35.34
2023-10-06T07:05:02.743Z,34.63
2023-10-06T07:07:02.769Z,33.33
2023-10-06T07:09:02.788Z,31.70
2023-10-06T07:11:02.832Z,30.59
2023-10-06T07:13:02.858Z,29.74
2023-10-06T07:15:02.793Z,29.54
2023-10-06T07:17:02.839Z,29.15
2023-10-06T07:19:02.836Z,28.38
2023-10-06T07:21:02.798Z,27.88
2023-10-06T07:23:02.879Z,27.24
2023-10-06T07:25:02.767Z,27.17
2023-10-06T07:27:03.003Z,26.44
2023-10-06T07:29:02.868Z,26.04
2023-10-06T07:31:02.826Z,25.81
2023-10-06T07:33:02.813Z,25.45
2023-10-06T07:35:02.876Z,25.01
2023-10-06T07:37:02.846Z,24.47
2023-10-06T07:40:02.884Z,24.36
2023-10-06T07:42:02.860Z,24.16
2023-10-06T07:44:02.864Z,24.29
2023-10-06T07:46:02.903Z,24.14
2023-10-06T07:48:03.001Z,24.24
2023-10-06T07:50:03.054Z,24.26
2023-10-06T07:52:02.847Z,24.23
2023-10-06T07:54:02.859Z,24.02
2023-10-06T07:56:02.905Z,23.38
2023-10-06T07:58:03.123Z,23.40
2023-10-06T08:00:02.908Z,23.50
2023-10-06T08:02:02.911Z,23.23
2023-10-06T08:04:02.878Z,22.71
2023-10-06T08:06:02.930Z,22.51
2023-10-06T08:08:02.962Z,22.00
2023-10-06T08:10:02.909Z,21.80
2023-10-06T08:12:02.903Z,21.47
2023-10-06T08:14:02.993Z,21.02
2023-10-06T08:16:02.999Z,20.92
2023-10-06T08:18:03.025Z,20.92
2023-10-06T08:20:03.007Z,20.88
2023-10-06T08:22:03.659Z,20.75
2023-10-06T08:24:02.970Z,20.36
2023-10-06T08:26:03.289Z,20.09
2023-10-06T08:28:02.958Z,20.05
2023-10-06T08:30:02.983Z,20.08
2023-10-06T08:32:03.000Z,19.71
2023-10-06T08:34:03.656Z,19.28
2023-10-06T08:36:03.434Z,19.06
2023-10-06T08:38:02.973Z,19.22
2023-10-06T08:40:03.902Z,19.38
2023-10-06T08:42:03.022Z,19.00
2023-10-06T08:44:03.043Z,18.98
2023-10-06T08:46:03.291Z,18.92
2023-10-06T08:48:04.456Z,18.49
2023-10-06T08:50:03.119Z,18.40
2023-10-06T08:52:03.208Z,18.26
2023-10-06T08:54:03.009Z,18.29
2023-10-06T08:56:03.070Z,18.28
2023-10-06T08:59:03.052Z,18.34
2023-10-06T09:01:03.097Z,18.63
2023-10-06T09:03:03.114Z,19.30
2023-10-06T09:05:03.103Z,20.18
2023-10-06T09:07:03.057Z,20.40
2023-10-06T09:09:03.064Z,20.53
2023-10-06T09:11:03.107Z,20.96
2023-10-06T09:13:03.089Z,21.09
2023-10-06T09:15:03.080Z,21.14
2023-10-06T09:17:03.223Z,21.46
2023-10-06T09:19:03.130Z,21.69
2023-10-06T09:21:03.126Z,21.60
2023-10-06T09:23:03.144Z,21.94
2023-10-06T09:25:03.101Z,22.57
2023-10-06T09:27:03.221Z,24.33
2023-10-06T09:29:03.726Z,25.28
2023-10-06T09:31:03.376Z,26.64
2023-10-06T09:33:03.213Z,26.65
2023-10-06T09:35:03.203Z,28.13
2023-10-06T09:37:03.185Z,28.73
2023-10-06T09:39:03.172Z,30.33
2023-10-06T09:41:03.184Z,30.55
2023-10-06T09:43:03.168Z,30.69
2023-10-06T09:45:03.202Z,31.02
2023-10-06T09:47:03.246Z,31.14
2023-10-06T09:49:03.179Z,31.39
2023-10-06T09:51:03.187Z,31.21
2023-10-06T09:53:03.243Z,31.68
2023-10-06T09:55:03.232Z,32.03
2023-10-06T09:57:03.190Z,32.46
2023-10-06T09:59:03.233Z,31.83
2023-10-06T10:01:03.331Z,32.27
2023-10-06T10:03:03.319Z,32.38
2023-10-06T10:05:03.298Z,32.77
2023-10-06T10:07:03.555Z,32.79
2023-10-06T10:09:03.260Z,33.81
2023-10-06T10:11:03.357Z,33.43
2023-10-06T10:13:03.286Z,33.70
2023-10-06T10:15:03.238Z,33.37
2023-10-06T10:17:03.331Z,33.64
2023-10-06T10:19:03.292Z,34.45
2023-10-06T10:21:03.291Z,34.69
2023-10-06T10:23:03.294Z,34.91
2023-10-06T10:25:20.962Z,34.58
2023-10-06T10:27:03.279Z,34.54
2023-10-06T10:29:03.425Z,35.13
2023-10-06T10:31:03.293Z,35.23
2023-10-06T10:34:18.758Z,35.85
2023-10-06T10:36:03.288Z,35.29
2023-10-06T10:38:05.695Z,35.35
2023-10-06T10:40:03.343Z,36.06
2023-10-06T10:42:03.341Z,35.63
2023-10-06T10:44:14.652Z,35.52
2023-10-06T10:46:03.311Z,36.10
2023-10-06T10:48:03.359Z,36.91
2023-10-06T10:51:03.336Z,37.06
2023-10-06T10:53:03.367Z,37.16
2023-10-06T10:55:03.386Z,37.04
2023-10-06T10:57:03.637Z,37.18
2023-10-06T10:59:03.342Z,36.52
2023-10-06T11:01:03.400Z,37.51
2023-10-06T11:03:03.453Z,36.92
2023-10-06T11:05:03.445Z,37.74
2023-10-06T11:07:03.520Z,38.12
2023-10-06T11:09:03.362Z,38.33
2023-10-06T11:11:03.450Z,38.24
2023-10-06T11:13:03.449Z,38.74
2023-10-06T11:15:03.427Z,38.57
2023-10-06T11:17:03.421Z,38.92
2023-10-06T11:19:03.398Z,38.94
2023-10-06T11:21:03.456Z,38.90
2023-10-06T11:23:03.496Z,38.97
2023-10-06T11:25:03.430Z,38.03
2023-10-06T11:27:03.414Z,38.54
2023-10-06T11:29:03.498Z,38.67
2023-10-06T11:31:03.489Z,39.58
2023-10-06T11:33:03.592Z,39.27
2023-10-06T11:35:03.467Z,38.93
2023-10-06T11:37:03.445Z,39.60
2023-10-06T11:39:03.501Z,39.35
2023-10-06T11:41:03.555Z,39.50
2023-10-06T11:44:04.716Z,39.10
2023-10-06T11:46:03.845Z,39.60
2023-10-06T11:48:03.708Z,39.44
2023-10-06T11:50:03.526Z,39.70
2023-10-06T11:52:03.544Z,40.86
2023-10-06T11:54:03.548Z,41.16
2023-10-06T11:56:03.624Z,41.28
2023-10-06T11:58:03.510Z,41.56
2023-10-06T12:00:03.569Z,41.51
2023-10-06T12:02:04.394Z,41.86
2023-10-06T12:04:03.641Z,41.80
2023-10-06T12:07:03.577Z,41.22
2023-10-06T12:09:03.533Z,41.43
2023-10-06T12:11:03.586Z,41.51
2023-10-06T12:13:03.581Z,41.50
2023-10-06T12:15:03.593Z,41.61
2023-10-06T12:17:03.672Z,41.42
2023-10-06T12:19:03.563Z,41.86
2023-10-06T12:21:03.602Z,41.09
2023-10-06T12:23:03.647Z,40.50
2023-10-06T12:25:03.622Z,39.83
2023-10-06T12:27:03.586Z,40.07
2023-10-06T12:29:03.614Z,40.35
2023-10-06T12:31:03.666Z,40.83
2023-10-06T12:34:03.674Z,40.72
2023-10-06T12:36:03.656Z,40.91
2023-10-06T12:38:04.585Z,41.18
2023-10-06T12:40:03.612Z,41.32
2023-10-06T12:42:03.612Z,41.53
2023-10-06T12:44:04.125Z,41.96
2023-10-06T12:46:03.692Z,40.87
2023-10-06T12:48:03.705Z,41.23
2023-10-06T12:50:03.691Z,40.44
2023-10-06T12:52:03.689Z,40.50
2023-10-06T12:54:03.708Z,41.12
2023-10-06T12:56:03.703Z,41.07
2023-10-06T12:58:03.659Z,40.80
2023-10-06T13:00:04.714Z,40.74
2023-10-06T13:02:03.746Z,40.22
2023-10-06T13:04:03.867Z,40.47
2023-10-06T13:06:04.390Z,40.37
2023-10-06T13:08:03.761Z,39.87
2023-10-06T13:10:04.004Z,40.26
2023-10-06T13:12:04.097Z,39.99
2023-10-06T13:14:03.776Z,39.58
2023-10-06T13:16:03.703Z,39.23
2023-10-06T13:18:03.861Z,38.92
2023-10-06T13:20:03.857Z,38.67
2023-10-06T13:22:03.725Z,38.71
2023-10-06T13:24:05.747Z,38.98
2023-10-06T13:26:03.815Z,39.87
2023-10-06T13:28:03.790Z,39.47
2023-10-06T13:30:04.861Z,39.69
2023-10-06T13:32:03.807Z,40.50
2023-10-06T13:34:04.102Z,40.05
2023-10-06T13:36:06.254Z,39.98
2023-10-06T13:39:03.806Z,39.78
2023-10-06T13:41:03.887Z,39.34
2023-10-06T13:43:03.831Z,39.46
2023-10-06T13:45:03.779Z,39.74
2023-10-06T13:48:05.525Z,39.62
2023-10-06T13:50:03.865Z,39.79
2023-10-06T13:52:03.852Z,38.92
2023-10-06T13:54:04.987Z,39.39
2023-10-06T13:56:04.001Z,39.01
2023-10-06T13:58:03.825Z,38.73
2023-10-06T14:00:05.157Z,38.76
2023-10-06T14:02:03.942Z,39.48
2023-10-06T14:05:03.904Z,39.08
2023-10-06T14:07:03.874Z,39.78
2023-10-06T14:11:03.880Z,40.27
2023-10-06T14:13:03.944Z,40.38
2023-10-06T14:15:03.898Z,40.93
2023-10-06T14:18:04.017Z,39.89
2023-10-06T14:20:03.931Z,39.51
2023-10-06T14:22:03.937Z,39.88
2023-10-06T14:24:04.754Z,40.07
2023-10-06T14:26:03.946Z,39.87
2023-10-06T14:28:03.944Z,40.19
2023-10-06T14:30:05.315Z,40.07
2023-10-06T14:32:03.950Z,40.48
2023-10-06T14:34:03.928Z,40.76
2023-10-06T14:37:03.920Z,41.34
2023-10-06T14:39:03.985Z,40.81
2023-10-06T14:41:03.972Z,40.61
2023-10-06T14:43:03.970Z,40.08
2023-10-06T14:45:03.985Z,40.38
2023-10-06T14:48:05.780Z,40.30
2023-10-06T14:50:03.966Z,40.57
2023-10-06T14:52:04.000Z,41.19
2023-10-06T14:54:04.010Z,41.05
2023-10-06T14:57:04.015Z,41.77
2023-10-06T15:02:04.055Z,42.73
2023-10-06T15:04:05.928Z,43.03
2023-10-06T15:06:03.997Z,42.72
2023-10-06T15:08:04.044Z,42.84
2023-10-06T15:10:04.046Z,42.25
2023-10-06T15:13:04.005Z,42.24
2023-10-06T15:15:04.069Z,42.52
2023-10-06T15:17:04.095Z,42.28
2023-10-06T15:20:04.087Z,42.47
2023-10-06T15:22:04.135Z,42.67
2023-10-06T15:24:04.073Z,42.86
2023-10-06T15:28:04.081Z,42.76
2023-10-06T15:30:04.104Z,43.24
2023-10-06T15:32:06.255Z,43.37
2023-10-06T15:34:04.087Z,43.33
2023-10-06T15:36:04.098Z,43.17
2023-10-06T15:38:05.191Z,43.51
2023-10-06T15:40:04.094Z,43.23
2023-10-06T15:42:04.102Z,43.14
2023-10-06T15:44:05.167Z,43.28
2023-10-06T15:46:04.238Z,44.11
2023-10-06T15:48:04.145Z,43.96
2023-10-06T15:50:15.569Z,43.90
2023-10-06T15:52:04.141Z,44.03
2023-10-06T15:54:04.160Z,43.37
2023-10-06T15:56:04.185Z,43.69
2023-10-06T15:58:04.128Z,43.44
2023-10-06T16:00:05.257Z,43.43
2023-10-06T16:02:04.239Z,43.39
2023-10-06T16:04:04.225Z,43.57
2023-10-06T16:06:04.156Z,44.06
2023-10-06T16:08:04.201Z,44.14
2023-10-06T16:10:04.202Z,44.63
2023-10-06T16:12:04.201Z,44.17
2023-10-06T16:14:04.230Z,44.46
2023-10-06T16:16:11.434Z,44.49
2023-10-06T16:18:04.239Z,44.57
2023-10-06T16:20:04.305Z,44.94
2023-10-06T16:22:04.235Z,44.81
2023-10-06T16:24:04.199Z,44.99
2023-10-06T16:26:04.230Z,45.66
2023-10-06T16:28:05.121Z,46.30
2023-10-06T16:30:04.288Z,47.64
2023-10-06T16:32:04.360Z,47.70
2023-10-06T16:34:04.236Z,47.77
2023-10-06T16:36:04.288Z,47.80
2023-10-06T16:38:04.315Z,47.64
2023-10-06T16:40:04.290Z,47.61
2023-10-06T16:42:04.248Z,47.75
2023-10-06T16:44:04.293Z,48.07
2023-10-06T16:46:04.359Z,48.33
2023-10-06T16:48:04.350Z,49.00
2023-10-06T16:50:04.322Z,49.23
2023-10-06T16:52:04.283Z,49.89
2023-10-06T16:54:04.328Z,50.59
2023-10-06T16:56:04.333Z,51.08
2023-10-06T16:58:04.312Z,51.06
2023-10-06T17:00:04.320Z,51.88
2023-10-06T17:02:04.364Z,51.87
2023-10-06T17:04:04.518Z,51.91
2023-10-06T17:06:04.360Z,52.05
2023-10-06T17:08:04.343Z,52.17
2023-10-06T17:10:04.318Z,52.33
2023-10-06T17:12:04.368Z,52.88
2023-10-06T17:14:04.772Z,52.91
2023-10-06T17:17:04.404Z,52.76
2023-10-06T17:19:04.383Z,52.83
2023-10-06T17:21:04.349Z,53.16
2023-10-06T17:23:04.406Z,53.05
2023-10-06T17:25:04.401Z,52.93
2023-10-06T17:28:04.409Z,53.13
2023-10-06T17:30:04.398Z,52.95
2023-10-06T17:33:04.499Z,53.11
2023-10-06T17:35:04.441Z,53.12
2023-10-06T17:37:27.392Z,53.21
2023-10-06T17:39:04.413Z,53.42
2023-10-06T17:41:04.470Z,53.63
2023-10-06T17:44:04.462Z,53.58
2023-10-06T17:47:04.436Z,53.59
2023-10-06T17:49:04.580Z,53.85
2023-10-06T17:51:04.464Z,53.96
2023-10-06T17:53:04.475Z,54.10
2023-10-06T17:56:04.485Z,54.16
2023-10-06T17:58:04.462Z,54.41
2023-10-06T18:00:04.440Z,54.34
2023-10-06T18:02:04.621Z,55.03
2023-10-06T18:04:04.628Z,55.64
2023-10-06T18:06:04.500Z,55.86
2023-10-06T18:08:04.468Z,55.99
2023-10-06T18:10:04.486Z,55.89
2023-10-06T18:12:24.056Z,56.15
2023-10-06T18:14:04.535Z,56.11
2023-10-06T18:16:04.506Z,56.14
2023-10-06T18:18:04.546Z,56.64
2023-10-06T18:20:04.571Z,56.60
2023-10-06T18:22:04.538Z,56.61
2023-10-06T18:24:04.503Z,56.54
2023-10-06T18:26:04.527Z,56.74
2023-10-06T18:28:04.567Z,57.04
2023-10-06T18:30:04.578Z,57.08
2023-10-06T18:32:04.677Z,56.85
2023-10-06T18:34:04.533Z,56.78
2023-10-06T18:37:04.532Z,57.19
2023-10-06T18:39:04.551Z,57.13
2023-10-06T18:41:04.627Z,57.11
2023-10-06T18:43:04.601Z,57.18
2023-10-06T18:45:04.610Z,57.44
2023-10-06T18:47:04.642Z,57.37
2023-10-06T18:49:04.574Z,57.56
2023-10-06T18:52:04.574Z,57.52
2023-10-06T18:54:04.635Z,57.31
2023-10-06T18:56:04.731Z,57.61
2023-10-06T18:58:04.656Z,57.98
2023-10-06T19:00:04.616Z,58.30
2023-10-06T19:02:04.821Z,58.74
2023-10-06T19:04:04.737Z,59.80
2023-10-06T19:06:04.670Z,60.41
2023-10-06T19:08:04.698Z,60.60
2023-10-06T19:10:04.644Z,60.51
2023-10-06T19:12:05.112Z,60.36
2023-10-06T19:14:04.688Z,60.04
2023-10-06T19:16:04.669Z,59.81
2023-10-06T19:18:04.706Z,59.50
2023-10-06T19:20:04.694Z,59.28
2023-10-06T19:22:04.713Z,59.18
2023-10-06T19:24:04.698Z,59.31
2023-10-06T19:26:04.690Z,59.22
2023-10-06T19:28:04.688Z,59.36
2023-10-06T19:30:04.724Z,59.68
2023-10-06T19:33:04.788Z,59.79
2023-10-06T19:35:04.731Z,59.71
2023-10-06T19:37:04.745Z,59.69
2023-10-06T19:40:04.736Z,59.81
2023-10-06T19:43:04.801Z,60.05
2023-10-06T19:45:04.745Z,60.75
2023-10-06T19:48:04.835Z,61.19
2023-10-06T19:50:04.785Z,61.47
2023-10-06T19:52:04.745Z,61.64
2023-10-06T19:54:04.742Z,61.95
2023-10-06T19:56:04.831Z,61.88
2023-10-06T19:58:04.802Z,62.17
2023-10-06T20:00:04.770Z,62.83
2023-10-06T20:02:04.819Z,62.93
2023-10-06T20:04:04.862Z,63.63
2023-10-06T20:06:04.815Z,63.29
2023-10-06T20:08:04.787Z,63.18
2023-10-06T20:10:04.811Z,62.37
2023-10-06T20:12:04.840Z,62.04
2023-10-06T20:14:04.841Z,61.66
2023-10-06T20:16:04.824Z,61.43
2023-10-06T20:19:04.858Z,61.58
2023-10-06T20:21:04.818Z,62.16
2023-10-06T20:23:04.798Z,62.80
2023-10-06T20:25:04.907Z,63.49
2023-10-06T20:27:04.877Z,63.62
2023-10-06T20:29:04.940Z,63.52
2023-10-06T20:31:04.946Z,63.59
2023-10-06T20:34:04.857Z,63.66
2023-10-06T20:37:04.907Z,63.04
2023-10-06T20:40:04.881Z,62.81
2023-10-06T20:43:04.901Z,62.41
2023-10-06T20:46:04.983Z,62.49
2023-10-06T20:48:05.034Z,62.76
2023-10-06T20:50:04.926Z,62.85
2023-10-06T20:53:04.932Z,62.72
2023-10-06T20:55:04.950Z,62.95
2023-10-06T20:58:04.969Z,62.68
2023-10-06T21:00:04.937Z,62.49
2023-10-06T21:02:04.954Z,62.37
2023-10-06T21:06:05.030Z,62.61
2023-10-06T21:08:04.978Z,62.84
2023-10-06T21:10:04.933Z,63.06
2023-10-06T21:12:04.972Z,63.22
2023-10-06T21:14:05.037Z,62.81
2023-10-06T21:16:04.998Z,62.57
2023-10-06T21:18:04.992Z,62.56
2023-10-06T21:20:04.963Z,62.46
2023-10-06T21:22:05.095Z,62.72
2023-10-06T21:24:05.021Z,63.20
2023-10-06T21:26:04.991Z,63.33
2023-10-06T21:28:04.970Z,63.16
2023-10-06T21:30:05.046Z,63.27
2023-10-06T21:32:05.076Z,63.10
2023-10-06T21:34:05.032Z,62.79
2023-10-06T21:37:05.068Z,62.77
2023-10-06T21:39:05.018Z,62.76
2023-10-06T21:41:05.048Z,62.67
2023-10-06T21:43:05.096Z,63.21
2023-10-06T21:45:05.086Z,63.63
2023-10-06T21:48:05.092Z,64.07
2023-10-06T21:50:05.120Z,64.05
2023-10-06T21:52:05.049Z,63.90
2023-10-06T21:55:05.099Z,63.48
2023-10-06T21:58:05.121Z,63.48
2023-10-06T22:00:05.074Z,63.29
2023-10-06T22:02:05.100Z,63.44
2023-10-06T22:04:05.278Z,63.69
2023-10-06T22:06:05.100Z,63.77
2023-10-06T22:08:05.149Z,64.04
2023-10-06T22:10:05.095Z,64.30
2023-10-06T22:12:05.088Z,64.48
2023-10-06T22:14:05.210Z,64.54
2023-10-06T22:16:05.178Z,65.50
2023-10-06T22:18:05.191Z,65.53
2023-10-06T22:20:05.128Z,65.46
2023-10-06T22:22:05.164Z,65.33
2023-10-06T22:24:05.180Z,65.26
2023-10-06T22:26:05.187Z,65.38
2023-10-06T22:28:05.143Z,65.92
2023-10-06T22:30:05.176Z,66.27
2023-10-06T22:32:05.413Z,66.16
2023-10-06T22:34:05.208Z,65.80
2023-10-06T22:36:05.168Z,66.03
2023-10-06T22:38:05.159Z,66.61
2023-10-06T22:40:05.192Z,67.18
2023-10-06T22:42:05.248Z,66.78
2023-10-06T22:44:05.194Z,66.46
2023-10-06T22:46:05.279Z,66.17
2023-10-06T22:48:05.322Z,65.26
2023-10-06T22:50:05.266Z,65.08
2023-10-06T22:55:05.292Z,64.42
2023-10-06T22:57:05.195Z,64.64
2023-10-06T22:59:05.265Z,64.68
2023-10-06T23:01:05.385Z,64.61
2023-10-06T23:03:05.330Z,64.41
2023-10-06T23:05:05.275Z,64.51
2023-10-06T23:07:05.242Z,64.97
2023-10-06T23:09:05.297Z,65.37
2023-10-06T23:11:05.314Z,65.12
2023-10-06T23:13:05.323Z,64.65
2023-10-06T23:15:05.259Z,64.77
2023-10-06T23:17:05.340Z,64.37
2023-10-06T23:19:05.344Z,64.20
2023-10-06T23:21:05.301Z,64.85
2023-10-06T23:23:05.366Z,64.97
2023-10-06T23:25:05.269Z,64.95
2023-10-06T23:27:05.321Z,64.57
2023-10-06T23:30:05.268Z,63.97
2023-10-06T23:32:05.416Z,63.82
2023-10-06T23:34:05.354Z,63.96
2023-10-06T23:36:05.334Z,64.05
2023-10-06T23:39:05.344Z,63.81
2023-10-06T23:41:05.382Z,63.92
2023-10-06T23:43:05.318Z,63.78
2023-10-06T23:45:05.343Z,63.72
2023-10-06T23:47:06.261Z,63.75
2023-10-06T23:49:05.371Z,63.75
2023-10-06T23:51:05.334Z,64.07
2023-10-06T23:53:05.433Z,63.95
2023-10-06T23:56:05.399Z,64.02
2023-10-06T23:59:05.435Z,63.98
